WZZ172 UKBB-LKPR
Flight info
| Callsign | WZZ172 |
|---|---|
| Flight time | N/A |
| Altitude | 26000 |
| Route | KAFEL P27 PEVOT/K0822F380 T708 DIBED/N0442F380 L984 PADKA/N0276F080 L984 SOPAV T709 BODAL L726 VLM |
| Aircraft | A20N/M-SDE2E3FGHIRWXY/LB1 |
Departure
| Time | 2026-04-27 13:30 |
|---|---|
| Airport | Boryspil International Airport (UKBB) |
Arrival
| Time | N/A |
|---|---|
| Airport | Václav Havel Airport Prague (LKPR) |
| Time | Latitude | Longitude | Altitude | Speed | Heading |
|---|---|---|---|---|---|
| 2026-04-27 12:29 | 50.35391 | 30.89921 | 415 ft | 0 kts | 273° |
| 2026-04-27 13:19 | 50.35390 | 30.89936 | 414 ft | 2 kts | 273° |
| 2026-04-27 13:19 | 50.35389 | 30.89961 | 413 ft | 2 kts | 273° |
| 2026-04-27 13:19 | 50.35388 | 30.89984 | 409 ft | 2 kts | 273° |
| 2026-04-27 13:19 | 50.35389 | 30.90011 | 407 ft | 2 kts | 255° |
| 2026-04-27 13:20 | 50.35393 | 30.90026 | 406 ft | 1 kts | 215° |
| 2026-04-27 13:20 | 50.35398 | 30.90031 | 405 ft | 1 kts | 199° |
| 2026-04-27 13:20 | 50.35402 | 30.90034 | 406 ft | 0 kts | 184° |
| 2026-04-27 13:22 | 50.35401 | 30.90034 | 414 ft | 1 kts | 184° |
| 2026-04-27 13:23 | 50.35363 | 30.90030 | 413 ft | 11 kts | 184° |
| 2026-04-27 13:23 | 50.35272 | 30.90023 | 411 ft | 15 kts | 183° |
| 2026-04-27 13:23 | 50.35220 | 30.90029 | 410 ft | 7 kts | 150° |
| 2026-04-27 13:23 | 50.35195 | 30.90107 | 407 ft | 9 kts | 97° |
| 2026-04-27 13:24 | 50.35187 | 30.90209 | 415 ft | 10 kts | 110° |
| 2026-04-27 13:24 | 50.35126 | 30.90255 | 413 ft | 11 kts | 180° |
| 2026-04-27 13:24 | 50.35040 | 30.90249 | 414 ft | 14 kts | 182° |
| 2026-04-27 13:24 | 50.34935 | 30.90241 | 412 ft | 16 kts | 182° |
| 2026-04-27 13:25 | 50.34812 | 30.90232 | 413 ft | 19 kts | 183° |
| 2026-04-27 13:25 | 50.34674 | 30.90221 | 409 ft | 21 kts | 183° |
| 2026-04-27 13:25 | 50.34522 | 30.90210 | 408 ft | 23 kts | 182° |
| 2026-04-27 13:25 | 50.34355 | 30.90198 | 410 ft | 25 kts | 182° |
| 2026-04-27 13:26 | 50.34177 | 30.90185 | 410 ft | 26 kts | 183° |
| 2026-04-27 13:26 | 50.33989 | 30.90171 | 412 ft | 28 kts | 182° |
| 2026-04-27 13:26 | 50.33792 | 30.90157 | 415 ft | 29 kts | 183° |
| 2026-04-27 13:26 | 50.33605 | 30.90143 | 413 ft | 24 kts | 182° |
| 2026-04-27 13:27 | 50.33429 | 30.90130 | 412 ft | 26 kts | 182° |
| 2026-04-27 13:27 | 50.33245 | 30.90116 | 412 ft | 28 kts | 182° |
| 2026-04-27 13:27 | 50.33048 | 30.90106 | 410 ft | 29 kts | 180° |
| 2026-04-27 13:27 | 50.32857 | 30.90088 | 413 ft | 25 kts | 183° |
| 2026-04-27 13:28 | 50.32679 | 30.90074 | 413 ft | 26 kts | 184° |
| 2026-04-27 13:28 | 50.32548 | 30.90064 | 413 ft | 6 kts | 183° |
| 2026-04-27 13:28 | 50.32497 | 30.90079 | 413 ft | 9 kts | 157° |
| 2026-04-27 13:28 | 50.32479 | 30.90096 | 411 ft | 0 kts | 144° |
| 2026-04-27 13:29 | 50.32469 | 30.90111 | 415 ft | 6 kts | 138° |
| 2026-04-27 13:29 | 50.32443 | 30.90184 | 411 ft | 9 kts | 103° |
| 2026-04-27 13:29 | 50.32451 | 30.90277 | 413 ft | 8 kts | 66° |
| 2026-04-27 13:29 | 50.32477 | 30.90333 | 419 ft | 9 kts | 45° |
| 2026-04-27 13:30 | 50.32699 | 30.90393 | 418 ft | 67 kts | 359° |
| 2026-04-27 13:30 | 50.33423 | 30.90430 | 416 ft | 138 kts | 6° |
| 2026-04-27 13:30 | 50.34537 | 30.90635 | 688 ft | 174 kts | 359° |
| 2026-04-27 13:30 | 50.35799 | 30.90813 | 1369 ft | 191 kts | 358° |
| 2026-04-27 13:31 | 50.37178 | 30.90937 | 1998 ft | 210 kts | 356° |
| 2026-04-27 13:31 | 50.38745 | 30.91025 | 2592 ft | 239 kts | 356° |
| 2026-04-27 13:31 | 50.40430 | 30.91161 | 3667 ft | 243 kts | 357° |
| 2026-04-27 13:31 | 50.42130 | 30.91274 | 4838 ft | 243 kts | 352° |
| 2026-04-27 13:32 | 50.43722 | 30.90589 | 5827 ft | 239 kts | 324° |
| 2026-04-27 13:32 | 50.44864 | 30.88730 | 6790 ft | 240 kts | 296° |
| 2026-04-27 13:32 | 50.45219 | 30.86199 | 7880 ft | 243 kts | 269° |
| 2026-04-27 13:32 | 50.44960 | 30.83546 | 8955 ft | 249 kts | 263° |
| 2026-04-27 13:33 | 50.44620 | 30.80863 | 10023 ft | 252 kts | 264° |
| 2026-04-27 13:33 | 50.44332 | 30.78125 | 10685 ft | 268 kts | 266° |
| 2026-04-27 13:33 | 50.44098 | 30.75108 | 11108 ft | 290 kts | 269° |
| 2026-04-27 13:33 | 50.43901 | 30.71884 | 11686 ft | 302 kts | 270° |
| 2026-04-27 13:34 | 50.43718 | 30.68570 | 12517 ft | 306 kts | 270° |
| 2026-04-27 13:34 | 50.43538 | 30.65231 | 13361 ft | 310 kts | 271° |
| 2026-04-27 13:34 | 50.43355 | 30.61835 | 14157 ft | 313 kts | 271° |
| 2026-04-27 13:34 | 50.43169 | 30.58428 | 14993 ft | 314 kts | 271° |
| 2026-04-27 13:35 | 50.42981 | 30.55010 | 15798 ft | 315 kts | 271° |
| 2026-04-27 13:35 | 50.42791 | 30.51583 | 16550 ft | 317 kts | 271° |
| 2026-04-27 13:35 | 50.42598 | 30.48126 | 17310 ft | 319 kts | 271° |
| 2026-04-27 13:35 | 50.42403 | 30.44641 | 18078 ft | 321 kts | 272° |
| 2026-04-27 13:36 | 50.42206 | 30.41135 | 18751 ft | 324 kts | 272° |
| 2026-04-27 13:36 | 50.42008 | 30.37611 | 19385 ft | 326 kts | 272° |
| 2026-04-27 13:36 | 50.41806 | 30.34054 | 20010 ft | 328 kts | 272° |
| 2026-04-27 13:36 | 50.41602 | 30.30472 | 20632 ft | 331 kts | 272° |
| 2026-04-27 13:37 | 50.41396 | 30.26865 | 21248 ft | 334 kts | 272° |
| 2026-04-27 13:37 | 50.41186 | 30.23226 | 21861 ft | 336 kts | 272° |
| 2026-04-27 13:37 | 50.40973 | 30.19555 | 22459 ft | 339 kts | 272° |
| 2026-04-27 13:37 | 50.40757 | 30.15855 | 23039 ft | 342 kts | 272° |
| 2026-04-27 13:38 | 50.40538 | 30.12122 | 23622 ft | 345 kts | 272° |
| 2026-04-27 13:38 | 50.40317 | 30.08371 | 24103 ft | 348 kts | 272° |
| 2026-04-27 13:38 | 50.40092 | 30.04578 | 24572 ft | 351 kts | 272° |
| 2026-04-27 13:38 | 50.39864 | 30.00755 | 25036 ft | 353 kts | 271° |
| 2026-04-27 13:39 | 50.39633 | 29.96909 | 25483 ft | 356 kts | 271° |
| 2026-04-27 13:39 | 50.39399 | 29.93033 | 25921 ft | 359 kts | 271° |
| 2026-04-27 13:39 | 50.39162 | 29.89127 | 26350 ft | 362 kts | 271° |
| 2026-04-27 13:39 | 50.38922 | 29.85193 | 26783 ft | 364 kts | 271° |
| 2026-04-27 13:40 | 50.38678 | 29.81227 | 27188 ft | 367 kts | 271° |
| 2026-04-27 13:40 | 50.38431 | 29.77233 | 27582 ft | 370 kts | 271° |
| 2026-04-27 13:40 | 50.38181 | 29.73205 | 27963 ft | 372 kts | 271° |
| 2026-04-27 13:40 | 50.37927 | 29.69155 | 28349 ft | 375 kts | 271° |
| 2026-04-27 13:41 | 50.37674 | 29.65136 | 28714 ft | 377 kts | 271° |
| 2026-04-27 13:41 | 50.37414 | 29.61028 | 29058 ft | 380 kts | 271° |
| 2026-04-27 13:41 | 50.37152 | 29.56904 | 29403 ft | 383 kts | 271° |
| 2026-04-27 13:41 | 50.36885 | 29.52740 | 29744 ft | 385 kts | 270° |
| 2026-04-27 13:42 | 50.36615 | 29.48552 | 30073 ft | 387 kts | 270° |
| 2026-04-27 13:42 | 50.36343 | 29.44349 | 30361 ft | 390 kts | 270° |
| 2026-04-27 13:42 | 50.36067 | 29.40111 | 30633 ft | 393 kts | 270° |
| 2026-04-27 13:42 | 50.35787 | 29.35842 | 30910 ft | 395 kts | 270° |
| 2026-04-27 13:43 | 50.35504 | 29.31542 | 31197 ft | 397 kts | 270° |
| 2026-04-27 13:43 | 50.35217 | 29.27235 | 31545 ft | 398 kts | 270° |
| 2026-04-27 13:43 | 50.34929 | 29.22931 | 31907 ft | 398 kts | 270° |
| 2026-04-27 13:43 | 50.34639 | 29.18618 | 32260 ft | 398 kts | 270° |
| 2026-04-27 13:44 | 50.34348 | 29.14307 | 32606 ft | 398 kts | 270° |
| 2026-04-27 13:44 | 50.34055 | 29.09997 | 32951 ft | 398 kts | 270° |
| 2026-04-27 13:44 | 50.33762 | 29.05691 | 33285 ft | 398 kts | 270° |
| 2026-04-27 13:44 | 50.33466 | 29.01373 | 33607 ft | 398 kts | 270° |
| 2026-04-27 13:45 | 50.33169 | 28.97069 | 33930 ft | 398 kts | 270° |
| 2026-04-27 13:45 | 50.32874 | 28.92825 | 34208 ft | 398 kts | 269° |
| 2026-04-27 13:45 | 50.32569 | 28.88443 | 34445 ft | 399 kts | 269° |
| 2026-04-27 13:45 | 50.32266 | 28.84117 | 34670 ft | 400 kts | 269° |
| 2026-04-27 13:46 | 50.31961 | 28.79785 | 34896 ft | 401 kts | 269° |
| 2026-04-27 13:46 | 50.31659 | 28.75515 | 35105 ft | 401 kts | 269° |
| 2026-04-27 13:46 | 50.31349 | 28.71167 | 35311 ft | 402 kts | 269° |
| 2026-04-27 13:46 | 50.31038 | 28.66825 | 35527 ft | 403 kts | 269° |
| 2026-04-27 13:47 | 50.30724 | 28.62463 | 35731 ft | 403 kts | 269° |
| 2026-04-27 13:47 | 50.30408 | 28.58102 | 35931 ft | 404 kts | 269° |
| 2026-04-27 13:47 | 50.30086 | 28.53678 | 36132 ft | 404 kts | 268° |
| 2026-04-27 13:47 | 50.29771 | 28.49364 | 36319 ft | 405 kts | 268° |
| 2026-04-27 13:48 | 50.29449 | 28.44984 | 36499 ft | 406 kts | 268° |
| 2026-04-27 13:48 | 50.29124 | 28.40601 | 36682 ft | 406 kts | 268° |
| 2026-04-27 13:48 | 50.28798 | 28.36213 | 36867 ft | 406 kts | 268° |
| 2026-04-27 13:48 | 50.28469 | 28.31817 | 37042 ft | 407 kts | 268° |
| 2026-04-27 13:49 | 50.28138 | 28.27416 | 37210 ft | 407 kts | 268° |
| 2026-04-27 13:49 | 50.27806 | 28.23017 | 37374 ft | 408 kts | 268° |
| 2026-04-27 13:49 | 50.27472 | 28.18612 | 37541 ft | 408 kts | 268° |
| 2026-04-27 13:49 | 50.27135 | 28.14203 | 37698 ft | 409 kts | 268° |
| 2026-04-27 13:50 | 50.26797 | 28.09795 | 37852 ft | 409 kts | 268° |
| 2026-04-27 13:50 | 50.26457 | 28.05379 | 38013 ft | 409 kts | 268° |
| 2026-04-27 13:50 | 50.25768 | 27.96498 | 38101 ft | 415 kts | 268° |
| 2026-04-27 13:51 | 50.25061 | 27.87466 | 38103 ft | 422 kts | 267° |
| 2026-04-27 13:51 | 50.24334 | 27.78304 | 38104 ft | 427 kts | 267° |
| 2026-04-27 13:52 | 50.23592 | 27.69044 | 38100 ft | 431 kts | 267° |
| 2026-04-27 13:52 | 50.22837 | 27.59724 | 38106 ft | 434 kts | 267° |
| 2026-04-27 13:53 | 50.21685 | 27.45664 | 38104 ft | 437 kts | 266° |
| 2026-04-27 13:54 | 50.21035 | 27.37830 | 38111 ft | 438 kts | 266° |
| 2026-04-27 13:54 | 50.20245 | 27.28398 | 38108 ft | 439 kts | 266° |
| 2026-04-27 13:55 | 50.19447 | 27.18954 | 38117 ft | 439 kts | 266° |
| 2026-04-27 13:55 | 50.18644 | 27.09503 | 38116 ft | 440 kts | 266° |
| 2026-04-27 13:56 | 50.17882 | 27.00032 | 38117 ft | 439 kts | 268° |
| 2026-04-27 13:56 | 50.17375 | 26.90536 | 38114 ft | 439 kts | 269° |
| 2026-04-27 13:57 | 50.16868 | 26.81051 | 38118 ft | 439 kts | 269° |
| 2026-04-27 13:57 | 50.16321 | 26.71531 | 38116 ft | 440 kts | 269° |
| 2026-04-27 13:58 | 50.15760 | 26.62041 | 38121 ft | 440 kts | 268° |
| 2026-04-27 13:58 | 50.15195 | 26.52691 | 38114 ft | 418 kts | 269° |
| 2026-04-27 13:58 | 50.14926 | 26.48319 | 38117 ft | 404 kts | 269° |
| 2026-04-27 13:59 | 50.14661 | 26.43973 | 38113 ft | 403 kts | 269° |
| 2026-04-27 13:59 | 50.14128 | 26.35186 | 38115 ft | 411 kts | 269° |
| 2026-04-27 14:00 | 50.13577 | 26.26309 | 38117 ft | 411 kts | 268° |
| 2026-04-27 14:00 | 50.13017 | 26.17438 | 38119 ft | 411 kts | 268° |
| 2026-04-27 14:01 | 50.12451 | 26.08566 | 38117 ft | 411 kts | 268° |
| 2026-04-27 14:01 | 50.11876 | 25.99686 | 38119 ft | 412 kts | 268° |
| 2026-04-27 14:02 | 50.11287 | 25.90819 | 38119 ft | 412 kts | 268° |
| 2026-04-27 14:02 | 50.10698 | 25.81952 | 38120 ft | 411 kts | 268° |
| 2026-04-27 14:03 | 50.10101 | 25.73075 | 38127 ft | 412 kts | 268° |
| 2026-04-27 14:03 | 50.09497 | 25.64204 | 38126 ft | 412 kts | 268° |
| 2026-04-27 14:04 | 50.08885 | 25.55330 | 38133 ft | 412 kts | 268° |
| 2026-04-27 14:04 | 50.08266 | 25.46438 | 38132 ft | 413 kts | 268° |
| 2026-04-27 14:05 | 50.07639 | 25.37559 | 38130 ft | 413 kts | 268° |
| 2026-04-27 14:05 | 50.07007 | 25.28685 | 38130 ft | 413 kts | 268° |
| 2026-04-27 14:06 | 50.06371 | 25.19863 | 38129 ft | 413 kts | 268° |
| 2026-04-27 14:06 | 50.05724 | 25.10982 | 38136 ft | 413 kts | 268° |
| 2026-04-27 14:07 | 50.05069 | 25.02099 | 38135 ft | 413 kts | 268° |
| 2026-04-27 14:07 | 50.04409 | 24.93233 | 38131 ft | 413 kts | 268° |
| 2026-04-27 14:08 | 50.03742 | 24.84367 | 38138 ft | 413 kts | 267° |
| 2026-04-27 14:08 | 50.03068 | 24.75487 | 38134 ft | 413 kts | 267° |
| 2026-04-27 14:09 | 50.02387 | 24.66622 | 38137 ft | 413 kts | 267° |
| 2026-04-27 14:09 | 50.01700 | 24.57760 | 38140 ft | 413 kts | 267° |
| 2026-04-27 14:10 | 50.01006 | 24.48913 | 38141 ft | 412 kts | 267° |
| 2026-04-27 14:10 | 50.00306 | 24.40056 | 38144 ft | 412 kts | 267° |
| 2026-04-27 14:11 | 49.99604 | 24.31271 | 38134 ft | 412 kts | 267° |
| 2026-04-27 14:11 | 49.98890 | 24.22424 | 38151 ft | 412 kts | 267° |
| 2026-04-27 14:12 | 49.98171 | 24.13591 | 38147 ft | 412 kts | 267° |
| 2026-04-27 14:12 | 49.97444 | 24.04748 | 38146 ft | 413 kts | 267° |
| 2026-04-27 14:13 | 49.96710 | 23.95906 | 38148 ft | 413 kts | 267° |
| 2026-04-27 14:13 | 49.95968 | 23.87061 | 38155 ft | 413 kts | 267° |
| 2026-04-27 14:14 | 49.95221 | 23.78225 | 38156 ft | 413 kts | 267° |
| 2026-04-27 14:14 | 49.94465 | 23.69371 | 38160 ft | 413 kts | 266° |
| 2026-04-27 14:15 | 49.93702 | 23.60530 | 38165 ft | 413 kts | 266° |
| 2026-04-27 14:15 | 49.92934 | 23.51693 | 38165 ft | 413 kts | 266° |
| 2026-04-27 14:16 | 49.92158 | 23.42854 | 38162 ft | 413 kts | 266° |
| 2026-04-27 14:16 | 49.91380 | 23.34061 | 38163 ft | 413 kts | 266° |
| 2026-04-27 14:17 | 49.90591 | 23.25225 | 38167 ft | 413 kts | 266° |
| 2026-04-27 14:17 | 49.89795 | 23.16390 | 38163 ft | 414 kts | 266° |
| 2026-04-27 14:18 | 49.89030 | 23.07554 | 38164 ft | 412 kts | 269° |
| 2026-04-27 14:18 | 49.89033 | 22.98734 | 38164 ft | 408 kts | 276° |
| 2026-04-27 14:19 | 49.89302 | 22.89951 | 38165 ft | 408 kts | 276° |
| 2026-04-27 14:19 | 49.89555 | 22.81158 | 38167 ft | 408 kts | 276° |
| 2026-04-27 14:20 | 49.89798 | 22.72356 | 38163 ft | 409 kts | 276° |
| 2026-04-27 14:20 | 49.90035 | 22.63547 | 38168 ft | 409 kts | 276° |
| 2026-04-27 14:21 | 49.90264 | 22.54716 | 38170 ft | 410 kts | 276° |
| 2026-04-27 14:21 | 49.90490 | 22.45884 | 38173 ft | 410 kts | 275° |
| 2026-04-27 14:22 | 49.90708 | 22.37040 | 38178 ft | 410 kts | 275° |
| 2026-04-27 14:22 | 49.90919 | 22.28247 | 38181 ft | 411 kts | 275° |
| 2026-04-27 14:23 | 49.91123 | 22.19374 | 38181 ft | 411 kts | 275° |
| 2026-04-27 14:23 | 49.91321 | 22.10502 | 38188 ft | 412 kts | 275° |
| 2026-04-27 14:24 | 49.91512 | 22.01625 | 38196 ft | 412 kts | 275° |
| 2026-04-27 14:24 | 49.91697 | 21.92746 | 38191 ft | 412 kts | 275° |
| 2026-04-27 14:25 | 49.91875 | 21.83853 | 38184 ft | 412 kts | 275° |
| 2026-04-27 14:25 | 49.92046 | 21.74985 | 38184 ft | 411 kts | 275° |
| 2026-04-27 14:26 | 49.92210 | 21.66174 | 38179 ft | 411 kts | 275° |
| 2026-04-27 14:26 | 49.92365 | 21.57245 | 38180 ft | 411 kts | 275° |
| 2026-04-27 14:27 | 49.92512 | 21.48366 | 38179 ft | 412 kts | 275° |
| 2026-04-27 14:27 | 49.92652 | 21.39536 | 38184 ft | 412 kts | 274° |
| 2026-04-27 14:28 | 49.92794 | 21.30649 | 38186 ft | 412 kts | 275° |
| 2026-04-27 14:28 | 49.92938 | 21.21745 | 38182 ft | 412 kts | 275° |
| 2026-04-27 14:29 | 49.93069 | 21.12838 | 38185 ft | 413 kts | 274° |
| 2026-04-27 14:29 | 49.93175 | 21.03940 | 38185 ft | 413 kts | 274° |
| 2026-04-27 14:30 | 49.93275 | 20.95033 | 38186 ft | 413 kts | 274° |
| 2026-04-27 14:30 | 49.93370 | 20.86109 | 38184 ft | 413 kts | 274° |
| 2026-04-27 14:31 | 49.93459 | 20.77202 | 38185 ft | 413 kts | 274° |
| 2026-04-27 14:31 | 49.93543 | 20.68275 | 38197 ft | 414 kts | 274° |
| 2026-04-27 14:32 | 49.93627 | 20.59345 | 38181 ft | 414 kts | 274° |
| 2026-04-27 14:32 | 49.93706 | 20.50423 | 38188 ft | 414 kts | 274° |
| 2026-04-27 14:33 | 49.93776 | 20.41487 | 38202 ft | 414 kts | 274° |
| 2026-04-27 14:33 | 49.93838 | 20.32611 | 38187 ft | 414 kts | 274° |
| 2026-04-27 14:34 | 49.93895 | 20.23684 | 38186 ft | 414 kts | 274° |
| 2026-04-27 14:35 | 49.93985 | 20.05957 | 38183 ft | 413 kts | 274° |
| 2026-04-27 14:35 | 49.94014 | 19.97040 | 38182 ft | 413 kts | 273° |
| 2026-04-27 14:36 | 49.94035 | 19.88124 | 38182 ft | 413 kts | 273° |
| 2026-04-27 14:36 | 49.94061 | 19.79218 | 38191 ft | 413 kts | 274° |
| 2026-04-27 14:37 | 49.94084 | 19.70299 | 38184 ft | 413 kts | 273° |
| 2026-04-27 14:37 | 49.94098 | 19.61383 | 38185 ft | 413 kts | 273° |
| 2026-04-27 14:38 | 49.94105 | 19.52471 | 38190 ft | 413 kts | 273° |
| 2026-04-27 14:38 | 49.94105 | 19.43557 | 38190 ft | 413 kts | 273° |
| 2026-04-27 14:39 | 49.94098 | 19.34644 | 38197 ft | 413 kts | 273° |
| 2026-04-27 14:39 | 49.94084 | 19.25795 | 38199 ft | 413 kts | 273° |
| 2026-04-27 14:40 | 49.94063 | 19.16875 | 38197 ft | 412 kts | 273° |
| 2026-04-27 14:40 | 49.94036 | 19.07986 | 38198 ft | 412 kts | 273° |
| 2026-04-27 14:41 | 49.94003 | 18.99080 | 38196 ft | 412 kts | 273° |
| 2026-04-27 14:41 | 49.93964 | 18.90196 | 38196 ft | 412 kts | 273° |
| 2026-04-27 14:42 | 49.93899 | 18.81312 | 38198 ft | 411 kts | 273° |
| 2026-04-27 14:42 | 49.93824 | 18.72428 | 38197 ft | 411 kts | 272° |
| 2026-04-27 14:43 | 49.93744 | 18.63564 | 38197 ft | 411 kts | 272° |
| 2026-04-27 14:43 | 49.93658 | 18.54699 | 38200 ft | 410 kts | 272° |
| 2026-04-27 14:44 | 49.93566 | 18.45838 | 38197 ft | 410 kts | 272° |
| 2026-04-27 14:44 | 49.93476 | 18.36991 | 38202 ft | 410 kts | 272° |
| 2026-04-27 14:45 | 49.93404 | 18.29633 | 38203 ft | 410 kts | 272° |
| 2026-04-27 14:45 | 49.93302 | 18.20785 | 38201 ft | 410 kts | 272° |
| 2026-04-27 14:46 | 49.93186 | 18.11939 | 38204 ft | 410 kts | 272° |
| 2026-04-27 14:46 | 49.92901 | 18.03084 | 38205 ft | 413 kts | 266° |
| 2026-04-27 14:47 | 49.92078 | 17.94262 | 38205 ft | 413 kts | 266° |
| 2026-04-27 14:47 | 49.91258 | 17.85436 | 38202 ft | 413 kts | 266° |
| 2026-04-27 14:48 | 49.90431 | 17.76601 | 38206 ft | 414 kts | 265° |
| 2026-04-27 14:48 | 49.89181 | 17.63418 | 38206 ft | 414 kts | 265° |
| 2026-04-27 14:49 | 49.88329 | 17.54528 | 38209 ft | 414 kts | 265° |
| 2026-04-27 14:49 | 49.87476 | 17.45691 | 38207 ft | 414 kts | 265° |
| 2026-04-27 14:50 | 49.86617 | 17.36917 | 38206 ft | 414 kts | 265° |
| 2026-04-27 14:50 | 49.85739 | 17.28080 | 38203 ft | 415 kts | 265° |
| 2026-04-27 14:51 | 49.84856 | 17.19245 | 38201 ft | 414 kts | 265° |
| 2026-04-27 14:51 | 49.83968 | 17.10430 | 38198 ft | 414 kts | 265° |
| 2026-04-27 14:52 | 49.83075 | 17.01622 | 38196 ft | 414 kts | 265° |
| 2026-04-27 14:52 | 49.82173 | 16.92807 | 38202 ft | 414 kts | 265° |
| 2026-04-27 14:53 | 49.81264 | 16.83991 | 38204 ft | 414 kts | 265° |
| 2026-04-27 14:53 | 49.80318 | 16.75193 | 38196 ft | 415 kts | 262° |
| 2026-04-27 14:54 | 49.78674 | 16.66569 | 38203 ft | 421 kts | 253° |
| 2026-04-27 14:54 | 49.76120 | 16.58372 | 38194 ft | 426 kts | 245° |
| 2026-04-27 14:55 | 49.73192 | 16.50411 | 38197 ft | 426 kts | 245° |
| 2026-04-27 14:55 | 49.70276 | 16.42443 | 38197 ft | 426 kts | 245° |
| 2026-04-27 14:56 | 49.67348 | 16.34476 | 38197 ft | 426 kts | 245° |
| 2026-04-27 14:56 | 49.64412 | 16.26522 | 38206 ft | 427 kts | 245° |
| 2026-04-27 14:57 | 49.61467 | 16.18568 | 38209 ft | 427 kts | 245° |
| 2026-04-27 14:57 | 49.58514 | 16.10617 | 38206 ft | 427 kts | 245° |
| 2026-04-27 14:58 | 49.55553 | 16.02669 | 38207 ft | 428 kts | 245° |
| 2026-04-27 14:58 | 49.52587 | 15.94732 | 38207 ft | 428 kts | 245° |
| 2026-04-27 14:59 | 49.49847 | 15.86665 | 38202 ft | 421 kts | 255° |
| 2026-04-27 14:59 | 49.49067 | 15.82365 | 37931 ft | 415 kts | 264° |
| 2026-04-27 14:59 | 49.48781 | 15.77974 | 37344 ft | 411 kts | 274° |
| 2026-04-27 15:00 | 49.48981 | 15.73604 | 36499 ft | 410 kts | 282° |
| 2026-04-27 15:00 | 49.49653 | 15.69341 | 35589 ft | 411 kts | 291° |
| 2026-04-27 15:00 | 49.50773 | 15.65311 | 34869 ft | 408 kts | 299° |
| 2026-04-27 15:00 | 49.52101 | 15.61461 | 34145 ft | 407 kts | 299° |
| 2026-04-27 15:01 | 49.53415 | 15.57607 | 33400 ft | 406 kts | 298° |
| 2026-04-27 15:01 | 49.54717 | 15.53760 | 32670 ft | 404 kts | 298° |
| 2026-04-27 15:01 | 49.56011 | 15.49920 | 31921 ft | 404 kts | 298° |
| 2026-04-27 15:01 | 49.57298 | 15.46091 | 31248 ft | 402 kts | 298° |
| 2026-04-27 15:02 | 49.58571 | 15.42296 | 30758 ft | 396 kts | 298° |
| 2026-04-27 15:02 | 49.59814 | 15.38588 | 30218 ft | 392 kts | 298° |
| 2026-04-27 15:02 | 49.61074 | 15.34824 | 29648 ft | 387 kts | 298° |
| 2026-04-27 15:02 | 49.62280 | 15.31213 | 29141 ft | 381 kts | 298° |
| 2026-04-27 15:03 | 49.63484 | 15.27605 | 28619 ft | 376 kts | 297° |
| 2026-04-27 15:03 | 49.64673 | 15.24037 | 28109 ft | 372 kts | 297° |
| 2026-04-27 15:03 | 49.65847 | 15.20510 | 27606 ft | 367 kts | 297° |
| 2026-04-27 15:03 | 49.67006 | 15.17021 | 27095 ft | 364 kts | 297° |
| 2026-04-27 15:04 | 49.68168 | 15.13521 | 26598 ft | 376 kts | 297° |
| 2026-04-27 15:04 | 49.69395 | 15.09821 | 26061 ft | 394 kts | 297° |
| 2026-04-27 15:04 | 49.70769 | 15.06131 | 25511 ft | 400 kts | 303° |
| 2026-04-27 15:04 | 49.72427 | 15.02678 | 24926 ft | 400 kts | 307° |
| 2026-04-27 15:05 | 49.74147 | 14.99301 | 24369 ft | 397 kts | 310° |
| 2026-04-27 15:05 | 49.76110 | 14.96336 | 23782 ft | 395 kts | 320° |
| 2026-04-27 15:05 | 49.78392 | 14.94011 | 23216 ft | 391 kts | 330° |
| 2026-04-27 15:05 | 49.80875 | 14.92329 | 22665 ft | 387 kts | 336° |
| 2026-04-27 15:06 | 49.83359 | 14.90799 | 22112 ft | 381 kts | 335° |
| 2026-04-27 15:06 | 49.85802 | 14.89278 | 21567 ft | 377 kts | 335° |
| 2026-04-27 15:06 | 49.88220 | 14.87768 | 21029 ft | 372 kts | 336° |
| 2026-04-27 15:06 | 49.90605 | 14.86277 | 20490 ft | 368 kts | 336° |
| 2026-04-27 15:07 | 49.92936 | 14.84819 | 19962 ft | 364 kts | 336° |
| 2026-04-27 15:07 | 49.95274 | 14.83356 | 19436 ft | 361 kts | 336° |
| 2026-04-27 15:07 | 49.97593 | 14.81905 | 18907 ft | 358 kts | 336° |
| 2026-04-27 15:07 | 49.99903 | 14.80457 | 18345 ft | 356 kts | 336° |
| 2026-04-27 15:08 | 50.02186 | 14.79009 | 17809 ft | 352 kts | 333° |
| 2026-04-27 15:08 | 50.04207 | 14.76949 | 17289 ft | 345 kts | 316° |
| 2026-04-27 15:08 | 50.05675 | 14.74046 | 16779 ft | 341 kts | 298° |
| 2026-04-27 15:08 | 50.06472 | 14.70600 | 16276 ft | 339 kts | 281° |
| 2026-04-27 15:09 | 50.06600 | 14.68224 | 15947 ft | 339 kts | 270° |
| 2026-04-27 15:09 | 50.06440 | 14.64564 | 15437 ft | 337 kts | 268° |
| 2026-04-27 15:09 | 50.06265 | 14.60931 | 14940 ft | 335 kts | 268° |
| 2026-04-27 15:10 | 50.06093 | 14.57324 | 14440 ft | 334 kts | 268° |
| 2026-04-27 15:10 | 50.05923 | 14.53728 | 13934 ft | 333 kts | 268° |
| 2026-04-27 15:10 | 50.05754 | 14.50147 | 13412 ft | 330 kts | 268° |
| 2026-04-27 15:10 | 50.05586 | 14.46599 | 12917 ft | 327 kts | 268° |
| 2026-04-27 15:11 | 50.05418 | 14.43079 | 12293 ft | 329 kts | 268° |
| 2026-04-27 15:11 | 50.05233 | 14.39478 | 11375 ft | 339 kts | 265° |
| 2026-04-27 15:11 | 50.04759 | 14.35812 | 10556 ft | 350 kts | 255° |
| 2026-04-27 15:11 | 50.03898 | 14.32321 | 10328 ft | 340 kts | 247° |
| 2026-04-27 15:12 | 50.02907 | 14.29070 | 10184 ft | 326 kts | 247° |
| 2026-04-27 15:12 | 50.01974 | 14.25942 | 10056 ft | 312 kts | 247° |
| 2026-04-27 15:12 | 50.01081 | 14.22938 | 9922 ft | 299 kts | 248° |
| 2026-04-27 15:12 | 50.00223 | 14.20064 | 9745 ft | 289 kts | 247° |
| 2026-04-27 15:13 | 49.99374 | 14.17238 | 9329 ft | 287 kts | 247° |
| 2026-04-27 15:13 | 49.98529 | 14.14442 | 8947 ft | 286 kts | 246° |
| 2026-04-27 15:13 | 49.97700 | 14.11701 | 8545 ft | 284 kts | 247° |
| 2026-04-27 15:13 | 49.96854 | 14.08895 | 8146 ft | 283 kts | 247° |
| 2026-04-27 15:14 | 49.96014 | 14.06116 | 7830 ft | 282 kts | 246° |
| 2026-04-27 15:14 | 49.95181 | 14.03364 | 7498 ft | 281 kts | 246° |
| 2026-04-27 15:14 | 49.94439 | 14.00581 | 7147 ft | 278 kts | 259° |
| 2026-04-27 15:14 | 49.94427 | 13.97633 | 6725 ft | 274 kts | 285° |
| 2026-04-27 15:15 | 49.95282 | 13.95034 | 6304 ft | 271 kts | 312° |
| 2026-04-27 15:15 | 49.96793 | 13.93348 | 5882 ft | 269 kts | 335° |
| 2026-04-27 15:15 | 49.98591 | 13.92623 | 5486 ft | 268 kts | 360° |
| 2026-04-27 15:15 | 50.00387 | 13.93241 | 5088 ft | 266 kts | 27° |
| 2026-04-27 15:16 | 50.01750 | 13.95074 | 4902 ft | 255 kts | 54° |
| 2026-04-27 15:16 | 50.02601 | 13.97362 | 4714 ft | 240 kts | 63° |
| 2026-04-27 15:16 | 50.03276 | 13.99657 | 4451 ft | 228 kts | 64° |
| 2026-04-27 15:16 | 50.03938 | 14.01851 | 4158 ft | 220 kts | 64° |
| 2026-04-27 15:17 | 50.04572 | 14.03966 | 3870 ft | 212 kts | 64° |
| 2026-04-27 15:17 | 50.05185 | 14.06004 | 3595 ft | 204 kts | 64° |
| 2026-04-27 15:17 | 50.05780 | 14.07976 | 3332 ft | 199 kts | 64° |
| 2026-04-27 15:17 | 50.06350 | 14.09887 | 3111 ft | 190 kts | 64° |
| 2026-04-27 15:18 | 50.06889 | 14.11673 | 2849 ft | 171 kts | 64° |
| 2026-04-27 15:18 | 50.07368 | 14.13267 | 2599 ft | 154 kts | 63° |
| 2026-04-27 15:18 | 50.07799 | 14.14701 | 2402 ft | 140 kts | 64° |
| 2026-04-27 15:18 | 50.08198 | 14.16031 | 2210 ft | 131 kts | 63° |
| 2026-04-27 15:19 | 50.08588 | 14.17329 | 2028 ft | 133 kts | 63° |